sensor_id;sensor_type;location;lat;lon;timestamp;P1;durP1;ratioP1;P2;durP2;ratioP2
15266;SDS011;7735;49.144;8.668;2023-04-08T00:02:00;4.97;;;3.07;;
15266;SDS011;7735;49.144;8.668;2023-04-08T00:04:27;7.27;;;3.77;;
15266;SDS011;7735;49.144;8.668;2023-04-08T00:06:53;9.70;;;4.80;;
15266;SDS011;7735;49.144;8.668;2023-04-08T00:09:20;11.50;;;5.70;;
15266;SDS011;7735;49.144;8.668;2023-04-08T00:11:47;11.27;;;6.07;;
15266;SDS011;7735;49.144;8.668;2023-04-08T00:14:14;10.13;;;5.50;;
15266;SDS011;7735;49.144;8.668;2023-04-08T00:16:41;7.77;;;4.17;;
15266;SDS011;7735;49.144;8.668;2023-04-08T00:19:09;10.03;;;5.00;;
15266;SDS011;7735;49.144;8.668;2023-04-08T00:21:35;8.60;;;4.17;;
15266;SDS011;7735;49.144;8.668;2023-04-08T00:24:02;7.97;;;3.70;;
15266;SDS011;7735;49.144;8.668;2023-04-08T00:26:29;7.00;;;4.23;;
15266;SDS011;7735;49.144;8.668;2023-04-08T00:28:56;9.43;;;4.47;;
15266;SDS011;7735;49.144;8.668;2023-04-08T00:31:22;8.90;;;4.73;;
15266;SDS011;7735;49.144;8.668;2023-04-08T00:33:49;7.23;;;4.07;;
15266;SDS011;7735;49.144;8.668;2023-04-08T00:36:17;7.13;;;4.23;;
15266;SDS011;7735;49.144;8.668;2023-04-08T00:38:44;6.93;;;3.90;;
15266;SDS011;7735;49.144;8.668;2023-04-08T00:41:11;7.63;;;4.07;;
15266;SDS011;7735;49.144;8.668;2023-04-08T00:43:38;6.03;;;3.47;;
15266;SDS011;7735;49.144;8.668;2023-04-08T00:46:05;5.27;;;2.97;;
15266;SDS011;7735;49.144;8.668;2023-04-08T00:48:31;5.07;;;3.20;;
15266;SDS011;7735;49.144;8.668;2023-04-08T00:50:59;4.47;;;2.97;;
15266;SDS011;7735;49.144;8.668;2023-04-08T00:53:29;5.63;;;3.03;;
15266;SDS011;7735;49.144;8.668;2023-04-08T00:55:56;4.13;;;2.80;;
15266;SDS011;7735;49.144;8.668;2023-04-08T00:58:24;4.50;;;2.73;;
15266;SDS011;7735;49.144;8.668;2023-04-08T01:00:52;5.13;;;3.17;;
15266;SDS011;7735;49.144;8.668;2023-04-08T01:03:25;6.23;;;3.77;;
15266;SDS011;7735;49.144;8.668;2023-04-08T01:05:59;7.97;;;3.87;;
15266;SDS011;7735;49.144;8.668;2023-04-08T01:08:36;4.73;;;2.93;;
15266;SDS011;7735;49.144;8.668;2023-04-08T01:11:06;5.63;;;3.30;;
15266;SDS011;7735;49.144;8.668;2023-04-08T01:13:36;6.07;;;3.23;;
15266;SDS011;7735;49.144;8.668;2023-04-08T01:16:06;7.13;;;3.77;;
15266;SDS011;7735;49.144;8.668;2023-04-08T01:18:36;5.63;;;3.57;;
15266;SDS011;7735;49.144;8.668;2023-04-08T01:21:03;6.13;;;3.53;;
15266;SDS011;7735;49.144;8.668;2023-04-08T01:23:36;6.07;;;3.60;;
15266;SDS011;7735;49.144;8.668;2023-04-08T01:26:11;7.33;;;3.70;;
15266;SDS011;7735;49.144;8.668;2023-04-08T01:28:46;8.30;;;3.97;;
15266;SDS011;7735;49.144;8.668;2023-04-08T01:31:14;7.70;;;3.83;;
15266;SDS011;7735;49.144;8.668;2023-04-08T01:33:42;9.17;;;4.10;;
15266;SDS011;7735;49.144;8.668;2023-04-08T01:36:10;7.97;;;4.20;;
15266;SDS011;7735;49.144;8.668;2023-04-08T01:38:37;8.97;;;4.30;;
15266;SDS011;7735;49.144;8.668;2023-04-08T01:41:04;10.93;;;4.50;;
15266;SDS011;7735;49.144;8.668;2023-04-08T01:43:35;8.63;;;4.63;;
15266;SDS011;7735;49.144;8.668;2023-04-08T01:46:04;9.57;;;4.33;;
15266;SDS011;7735;49.144;8.668;2023-04-08T01:48:33;7.33;;;4.40;;
15266;SDS011;7735;49.144;8.668;2023-04-08T01:51:01;7.87;;;4.40;;
15266;SDS011;7735;49.144;8.668;2023-04-08T01:53:29;5.33;;;3.57;;
15266;SDS011;7735;49.144;8.668;2023-04-08T01:55:57;5.83;;;3.63;;
15266;SDS011;7735;49.144;8.668;2023-04-08T01:58:27;5.70;;;3.73;;
15266;SDS011;7735;49.144;8.668;2023-04-08T02:01:03;7.10;;;3.97;;
15266;SDS011;7735;49.144;8.668;2023-04-08T02:03:31;9.20;;;4.40;;
15266;SDS011;7735;49.144;8.668;2023-04-08T02:06:00;8.80;;;4.43;;
15266;SDS011;7735;49.144;8.668;2023-04-08T02:08:27;7.90;;;4.50;;
15266;SDS011;7735;49.144;8.668;2023-04-08T02:10:54;9.63;;;5.30;;
15266;SDS011;7735;49.144;8.668;2023-04-08T02:13:21;9.40;;;5.40;;
15266;SDS011;7735;49.144;8.668;2023-04-08T02:15:49;10.50;;;5.37;;
15266;SDS011;7735;49.144;8.668;2023-04-08T02:18:24;8.63;;;4.83;;
15266;SDS011;7735;49.144;8.668;2023-04-08T02:20:52;9.90;;;5.07;;
15266;SDS011;7735;49.144;8.668;2023-04-08T02:23:23;9.23;;;4.60;;
15266;SDS011;7735;49.144;8.668;2023-04-08T02:25:53;9.10;;;5.40;;
15266;SDS011;7735;49.144;8.668;2023-04-08T02:28:21;11.33;;;5.40;;
15266;SDS011;7735;49.144;8.668;2023-04-08T02:30:51;11.37;;;4.63;;
15266;SDS011;7735;49.144;8.668;2023-04-08T02:33:21;9.83;;;4.57;;
15266;SDS011;7735;49.144;8.668;2023-04-08T02:35:49;9.30;;;4.97;;
15266;SDS011;7735;49.144;8.668;2023-04-08T02:38:18;8.37;;;4.60;;
15266;SDS011;7735;49.144;8.668;2023-04-08T02:40:45;11.37;;;5.23;;
15266;SDS011;7735;49.144;8.668;2023-04-08T02:43:15;11.37;;;5.37;;
15266;SDS011;7735;49.144;8.668;2023-04-08T02:45:42;8.57;;;5.10;;
15266;SDS011;7735;49.144;8.668;2023-04-08T02:48:09;9.60;;;5.10;;
15266;SDS011;7735;49.144;8.668;2023-04-08T02:50:37;8.53;;;4.40;;
15266;SDS011;7735;49.144;8.668;2023-04-08T02:53:04;11.00;;;5.43;;
15266;SDS011;7735;49.144;8.668;2023-04-08T02:55:31;9.37;;;5.30;;
15266;SDS011;7735;49.144;8.668;2023-04-08T02:57:57;11.27;;;5.40;;
15266;SDS011;7735;49.144;8.668;2023-04-08T03:00:24;9.20;;;4.40;;
15266;SDS011;7735;49.144;8.668;2023-04-08T03:02:51;10.07;;;5.23;;
15266;SDS011;7735;49.144;8.668;2023-04-08T03:05:18;10.90;;;6.30;;
15266;SDS011;7735;49.144;8.668;2023-04-08T03:07:47;11.40;;;5.87;;
15266;SDS011;7735;49.144;8.668;2023-04-08T03:10:13;11.60;;;5.50;;
15266;SDS011;7735;49.144;8.668;2023-04-08T03:12:40;12.37;;;5.80;;
15266;SDS011;7735;49.144;8.668;2023-04-08T03:15:07;12.47;;;6.27;;
15266;SDS011;7735;49.144;8.668;2023-04-08T03:17:34;20.83;;;9.83;;
15266;SDS011;7735;49.144;8.668;2023-04-08T03:20:01;18.53;;;8.10;;
15266;SDS011;7735;49.144;8.668;2023-04-08T03:22:29;13.03;;;6.60;;
15266;SDS011;7735;49.144;8.668;2023-04-08T03:24:57;9.43;;;5.00;;
15266;SDS011;7735;49.144;8.668;2023-04-08T03:27:25;9.93;;;5.10;;
15266;SDS011;7735;49.144;8.668;2023-04-08T03:29:51;9.33;;;5.00;;
15266;SDS011;7735;49.144;8.668;2023-04-08T03:32:18;7.93;;;4.60;;
15266;SDS011;7735;49.144;8.668;2023-04-08T03:34:45;12.70;;;5.37;;
15266;SDS011;7735;49.144;8.668;2023-04-08T03:37:13;9.47;;;5.43;;
15266;SDS011;7735;49.144;8.668;2023-04-08T03:39:40;10.03;;;5.10;;
15266;SDS011;7735;49.144;8.668;2023-04-08T03:42:08;9.13;;;5.40;;
15266;SDS011;7735;49.144;8.668;2023-04-08T03:44:35;9.87;;;5.53;;
15266;SDS011;7735;49.144;8.668;2023-04-08T03:47:02;10.57;;;5.47;;
15266;SDS011;7735;49.144;8.668;2023-04-08T03:49:28;11.17;;;6.30;;
15266;SDS011;7735;49.144;8.668;2023-04-08T03:51:55;12.17;;;6.50;;
15266;SDS011;7735;49.144;8.668;2023-04-08T03:54:21;14.03;;;6.40;;
15266;SDS011;7735;49.144;8.668;2023-04-08T03:56:48;11.20;;;6.10;;
15266;SDS011;7735;49.144;8.668;2023-04-08T03:59:16;9.83;;;5.60;;
15266;SDS011;7735;49.144;8.668;2023-04-08T04:01:43;13.53;;;5.53;;
15266;SDS011;7735;49.144;8.668;2023-04-08T04:04:10;11.70;;;6.00;;
15266;SDS011;7735;49.144;8.668;2023-04-08T04:06:37;10.70;;;5.30;;
15266;SDS011;7735;49.144;8.668;2023-04-08T04:09:03;8.53;;;4.80;;
15266;SDS011;7735;49.144;8.668;2023-04-08T04:11:30;9.97;;;5.70;;
15266;SDS011;7735;49.144;8.668;2023-04-08T04:13:56;9.07;;;5.20;;
15266;SDS011;7735;49.144;8.668;2023-04-08T04:16:24;10.13;;;5.27;;
15266;SDS011;7735;49.144;8.668;2023-04-08T04:18:51;12.30;;;5.47;;
15266;SDS011;7735;49.144;8.668;2023-04-08T04:21:18;10.60;;;4.83;;
15266;SDS011;7735;49.144;8.668;2023-04-08T04:23:45;11.83;;;5.27;;
15266;SDS011;7735;49.144;8.668;2023-04-08T04:26:12;11.60;;;5.87;;
15266;SDS011;7735;49.144;8.668;2023-04-08T04:28:39;10.37;;;5.23;;
15266;SDS011;7735;49.144;8.668;2023-04-08T04:31:05;11.50;;;5.87;;
15266;SDS011;7735;49.144;8.668;2023-04-08T04:33:33;10.87;;;5.97;;
15266;SDS011;7735;49.144;8.668;2023-04-08T04:36:00;9.37;;;5.23;;
15266;SDS011;7735;49.144;8.668;2023-04-08T04:38:27;11.37;;;5.20;;
15266;SDS011;7735;49.144;8.668;2023-04-08T04:40:53;11.50;;;5.07;;
15266;SDS011;7735;49.144;8.668;2023-04-08T04:43:21;9.83;;;5.23;;
15266;SDS011;7735;49.144;8.668;2023-04-08T04:45:48;8.73;;;4.60;;
15266;SDS011;7735;49.144;8.668;2023-04-08T04:48:14;10.87;;;5.33;;
15266;SDS011;7735;49.144;8.668;2023-04-08T04:50:42;8.57;;;4.80;;
15266;SDS011;7735;49.144;8.668;2023-04-08T04:53:09;12.47;;;6.20;;
15266;SDS011;7735;49.144;8.668;2023-04-08T04:55:36;10.07;;;5.27;;
15266;SDS011;7735;49.144;8.668;2023-04-08T04:58:02;11.00;;;5.57;;
15266;SDS011;7735;49.144;8.668;2023-04-08T05:00:29;10.03;;;5.30;;
15266;SDS011;7735;49.144;8.668;2023-04-08T05:02:56;11.73;;;6.03;;
15266;SDS011;7735;49.144;8.668;2023-04-08T05:05:22;10.97;;;6.03;;
15266;SDS011;7735;49.144;8.668;2023-04-08T05:07:50;9.23;;;5.43;;
15266;SDS011;7735;49.144;8.668;2023-04-08T05:10:17;11.90;;;5.77;;
15266;SDS011;7735;49.144;8.668;2023-04-08T05:12:44;11.87;;;5.73;;
15266;SDS011;7735;49.144;8.668;2023-04-08T05:15:14;10.60;;;6.20;;
15266;SDS011;7735;49.144;8.668;2023-04-08T05:17:41;13.97;;;6.70;;
15266;SDS011;7735;49.144;8.668;2023-04-08T05:20:08;11.67;;;6.30;;
15266;SDS011;7735;49.144;8.668;2023-04-08T05:22:35;10.60;;;5.67;;
15266;SDS011;7735;49.144;8.668;2023-04-08T05:25:03;11.37;;;5.03;;
15266;SDS011;7735;49.144;8.668;2023-04-08T05:27:30;14.77;;;6.20;;
15266;SDS011;7735;49.144;8.668;2023-04-08T05:29:57;21.40;;;10.53;;
15266;SDS011;7735;49.144;8.668;2023-04-08T05:32:23;15.00;;;7.70;;
15266;SDS011;7735;49.144;8.668;2023-04-08T05:34:50;25.00;;;12.63;;
15266;SDS011;7735;49.144;8.668;2023-04-08T05:37:17;13.97;;;6.60;;
15266;SDS011;7735;49.144;8.668;2023-04-08T05:39:43;15.57;;;6.63;;
15266;SDS011;7735;49.144;8.668;2023-04-08T05:42:11;12.03;;;6.00;;
15266;SDS011;7735;49.144;8.668;2023-04-08T05:44:38;12.87;;;6.57;;
15266;SDS011;7735;49.144;8.668;2023-04-08T05:47:07;17.13;;;8.97;;
15266;SDS011;7735;49.144;8.668;2023-04-08T05:49:34;17.70;;;10.47;;
15266;SDS011;7735;49.144;8.668;2023-04-08T05:52:01;18.60;;;10.57;;
15266;SDS011;7735;49.144;8.668;2023-04-08T05:54:28;15.10;;;7.10;;
15266;SDS011;7735;49.144;8.668;2023-04-08T05:56:55;14.43;;;7.03;;
15266;SDS011;7735;49.144;8.668;2023-04-08T05:59:23;15.50;;;7.67;;
15266;SDS011;7735;49.144;8.668;2023-04-08T06:01:50;13.90;;;6.87;;
15266;SDS011;7735;49.144;8.668;2023-04-08T06:04:16;13.47;;;6.13;;
15266;SDS011;7735;49.144;8.668;2023-04-08T06:06:43;14.63;;;6.57;;
15266;SDS011;7735;49.144;8.668;2023-04-08T06:09:10;14.10;;;6.60;;
15266;SDS011;7735;49.144;8.668;2023-04-08T06:11:36;14.40;;;6.70;;
15266;SDS011;7735;49.144;8.668;2023-04-08T06:14:03;15.47;;;8.03;;
15266;SDS011;7735;49.144;8.668;2023-04-08T06:16:31;12.97;;;6.53;;
15266;SDS011;7735;49.144;8.668;2023-04-08T06:18:58;16.43;;;7.90;;
15266;SDS011;7735;49.144;8.668;2023-04-08T06:21:25;16.33;;;7.77;;
15266;SDS011;7735;49.144;8.668;2023-04-08T06:23:51;12.70;;;7.07;;
15266;SDS011;7735;49.144;8.668;2023-04-08T06:26:19;14.50;;;6.80;;
15266;SDS011;7735;49.144;8.668;2023-04-08T06:28:46;20.03;;;8.93;;
15266;SDS011;7735;49.144;8.668;2023-04-08T06:31:13;17.30;;;7.43;;
15266;SDS011;7735;49.144;8.668;2023-04-08T06:33:41;17.93;;;7.50;;
15266;SDS011;7735;49.144;8.668;2023-04-08T06:36:08;18.03;;;9.33;;
15266;SDS011;7735;49.144;8.668;2023-04-08T06:38:37;20.47;;;8.63;;
15266;SDS011;7735;49.144;8.668;2023-04-08T06:41:03;14.97;;;7.50;;
15266;SDS011;7735;49.144;8.668;2023-04-08T06:43:30;16.97;;;7.83;;
15266;SDS011;7735;49.144;8.668;2023-04-08T06:45:57;15.70;;;7.27;;
15266;SDS011;7735;49.144;8.668;2023-04-08T06:48:24;14.50;;;7.30;;
15266;SDS011;7735;49.144;8.668;2023-04-08T06:50:54;17.80;;;8.43;;
15266;SDS011;7735;49.144;8.668;2023-04-08T06:53:21;17.80;;;8.47;;
15266;SDS011;7735;49.144;8.668;2023-04-08T06:55:48;15.80;;;7.23;;
15266;SDS011;7735;49.144;8.668;2023-04-08T06:58:22;16.43;;;7.07;;
15266;SDS011;7735;49.144;8.668;2023-04-08T07:00:57;17.40;;;8.33;;
15266;SDS011;7735;49.144;8.668;2023-04-08T07:03:38;15.93;;;7.60;;
15266;SDS011;7735;49.144;8.668;2023-04-08T07:06:06;14.40;;;7.47;;
15266;SDS011;7735;49.144;8.668;2023-04-08T07:08:33;18.40;;;8.53;;
15266;SDS011;7735;49.144;8.668;2023-04-08T07:11:03;16.50;;;7.87;;
15266;SDS011;7735;49.144;8.668;2023-04-08T07:13:30;15.73;;;7.37;;
15266;SDS011;7735;49.144;8.668;2023-04-08T07:15:57;15.83;;;8.53;;
15266;SDS011;7735;49.144;8.668;2023-04-08T07:18:24;19.50;;;9.87;;
15266;SDS011;7735;49.144;8.668;2023-04-08T07:20:50;15.60;;;8.33;;
15266;SDS011;7735;49.144;8.668;2023-04-08T07:23:19;20.13;;;8.77;;
15266;SDS011;7735;49.144;8.668;2023-04-08T07:25:46;13.53;;;7.57;;
15266;SDS011;7735;49.144;8.668;2023-04-08T07:28:13;13.33;;;7.20;;
15266;SDS011;7735;49.144;8.668;2023-04-08T07:30:40;15.63;;;7.40;;
15266;SDS011;7735;49.144;8.668;2023-04-08T07:33:07;13.93;;;7.17;;
15266;SDS011;7735;49.144;8.668;2023-04-08T07:35:33;12.27;;;7.07;;
15266;SDS011;7735;49.144;8.668;2023-04-08T07:38:00;14.60;;;7.90;;
15266;SDS011;7735;49.144;8.668;2023-04-08T07:40:28;14.53;;;7.40;;
15266;SDS011;7735;49.144;8.668;2023-04-08T07:42:55;18.00;;;6.93;;
15266;SDS011;7735;49.144;8.668;2023-04-08T07:45:21;14.67;;;6.87;;
15266;SDS011;7735;49.144;8.668;2023-04-08T07:47:48;11.10;;;5.87;;
15266;SDS011;7735;49.144;8.668;2023-04-08T07:50:14;5.53;;;1.80;;
15266;SDS011;7735;49.144;8.668;2023-04-08T07:52:41;7.70;;;3.67;;
15266;SDS011;7735;49.144;8.668;2023-04-08T07:55:08;12.53;;;7.57;;
15266;SDS011;7735;49.144;8.668;2023-04-08T07:57:36;12.33;;;6.37;;
15266;SDS011;7735;49.144;8.668;2023-04-08T08:00:03;13.43;;;6.77;;
15266;SDS011;7735;49.144;8.668;2023-04-08T08:02:32;10.53;;;5.30;;
15266;SDS011;7735;49.144;8.668;2023-04-08T08:04:59;10.70;;;6.07;;
15266;SDS011;7735;49.144;8.668;2023-04-08T08:07:27;11.90;;;6.30;;
15266;SDS011;7735;49.144;8.668;2023-04-08T08:09:54;10.97;;;5.23;;
15266;SDS011;7735;49.144;8.668;2023-04-08T08:12:21;11.23;;;6.07;;
15266;SDS011;7735;49.144;8.668;2023-04-08T08:14:49;12.50;;;5.90;;
15266;SDS011;7735;49.144;8.668;2023-04-08T08:17:18;8.47;;;5.50;;
15266;SDS011;7735;49.144;8.668;2023-04-08T08:19:45;11.70;;;8.50;;
15266;SDS011;7735;49.144;8.668;2023-04-08T08:22:12;16.97;;;8.97;;
15266;SDS011;7735;49.144;8.668;2023-04-08T08:24:39;9.23;;;5.70;;
15266;SDS011;7735;49.144;8.668;2023-04-08T08:27:05;10.07;;;5.20;;
15266;SDS011;7735;49.144;8.668;2023-04-08T08:29:34;11.20;;;6.67;;
15266;SDS011;7735;49.144;8.668;2023-04-08T08:32:03;11.60;;;6.07;;
15266;SDS011;7735;49.144;8.668;2023-04-08T08:34:30;10.40;;;6.33;;
15266;SDS011;7735;49.144;8.668;2023-04-08T08:36:57;9.20;;;5.90;;
15266;SDS011;7735;49.144;8.668;2023-04-08T08:39:24;9.73;;;6.23;;
15266;SDS011;7735;49.144;8.668;2023-04-08T08:41:50;10.43;;;6.27;;
15266;SDS011;7735;49.144;8.668;2023-04-08T08:44:17;10.63;;;6.07;;
15266;SDS011;7735;49.144;8.668;2023-04-08T08:46:44;8.73;;;4.93;;
15266;SDS011;7735;49.144;8.668;2023-04-08T08:49:14;10.17;;;5.47;;
15266;SDS011;7735;49.144;8.668;2023-04-08T08:51:40;7.40;;;4.97;;
15266;SDS011;7735;49.144;8.668;2023-04-08T08:54:10;9.43;;;5.60;;
15266;SDS011;7735;49.144;8.668;2023-04-08T08:56:37;10.20;;;6.13;;
15266;SDS011;7735;49.144;8.668;2023-04-08T08:59:06;8.03;;;5.03;;
15266;SDS011;7735;49.144;8.668;2023-04-08T09:01:39;7.87;;;5.00;;
15266;SDS011;7735;49.144;8.668;2023-04-08T09:04:13;6.83;;;4.70;;
15266;SDS011;7735;49.144;8.668;2023-04-08T09:06:44;8.47;;;5.23;;
15266;SDS011;7735;49.144;8.668;2023-04-08T09:09:12;5.57;;;3.73;;
15266;SDS011;7735;49.144;8.668;2023-04-08T09:11:40;6.77;;;4.60;;
15266;SDS011;7735;49.144;8.668;2023-04-08T09:14:18;7.80;;;4.73;;
15266;SDS011;7735;49.144;8.668;2023-04-08T09:16:46;10.00;;;7.13;;
15266;SDS011;7735;49.144;8.668;2023-04-08T09:19:14;11.03;;;6.37;;
15266;SDS011;7735;49.144;8.668;2023-04-08T09:21:40;10.13;;;6.13;;
15266;SDS011;7735;49.144;8.668;2023-04-08T09:24:08;10.43;;;6.87;;
15266;SDS011;7735;49.144;8.668;2023-04-08T09:26:35;9.60;;;6.30;;
15266;SDS011;7735;49.144;8.668;2023-04-08T09:29:03;12.27;;;6.43;;
15266;SDS011;7735;49.144;8.668;2023-04-08T09:31:31;8.50;;;4.17;;
15266;SDS011;7735;49.144;8.668;2023-04-08T09:34:00;10.03;;;5.90;;
15266;SDS011;7735;49.144;8.668;2023-04-08T09:36:37;8.00;;;5.70;;
15266;SDS011;7735;49.144;8.668;2023-04-08T09:39:04;10.27;;;6.23;;
15266;SDS011;7735;49.144;8.668;2023-04-08T09:41:32;11.20;;;7.03;;
15266;SDS011;7735;49.144;8.668;2023-04-08T09:44:01;8.03;;;5.30;;
15266;SDS011;7735;49.144;8.668;2023-04-08T09:46:31;12.10;;;6.53;;
15266;SDS011;7735;49.144;8.668;2023-04-08T09:49:04;10.40;;;7.00;;
15266;SDS011;7735;49.144;8.668;2023-04-08T09:51:32;10.37;;;6.00;;
15266;SDS011;7735;49.144;8.668;2023-04-08T09:54:09;10.17;;;6.17;;
15266;SDS011;7735;49.144;8.668;2023-04-08T09:56:42;12.63;;;7.67;;
15266;SDS011;7735;49.144;8.668;2023-04-08T09:59:16;11.80;;;6.83;;
15266;SDS011;7735;49.144;8.668;2023-04-08T10:01:49;10.60;;;6.60;;
15266;SDS011;7735;49.144;8.668;2023-04-08T10:04:18;10.57;;;7.30;;
15266;SDS011;7735;49.144;8.668;2023-04-08T10:06:48;13.80;;;7.63;;
15266;SDS011;7735;49.144;8.668;2023-04-08T10:09:20;10.50;;;5.47;;
15266;SDS011;7735;49.144;8.668;2023-04-08T10:11:47;11.13;;;6.57;;
15266;SDS011;7735;49.144;8.668;2023-04-08T10:14:14;11.07;;;6.53;;
15266;SDS011;7735;49.144;8.668;2023-04-08T10:16:41;9.60;;;5.07;;
15266;SDS011;7735;49.144;8.668;2023-04-08T10:22:04;10.63;;;6.17;;
15266;SDS011;7735;49.144;8.668;2023-04-08T10:25:27;9.20;;;6.10;;
15266;SDS011;7735;49.144;8.668;2023-04-08T10:27:55;12.37;;;6.20;;
15266;SDS011;7735;49.144;8.668;2023-04-08T10:33:11;9.97;;;6.10;;
15266;SDS011;7735;49.144;8.668;2023-04-08T10:35:40;10.07;;;6.00;;
15266;SDS011;7735;49.144;8.668;2023-04-08T10:38:12;9.00;;;6.13;;
15266;SDS011;7735;49.144;8.668;2023-04-08T10:40:40;11.63;;;6.77;;
15266;SDS011;7735;49.144;8.668;2023-04-08T10:43:08;8.27;;;5.23;;
15266;SDS011;7735;49.144;8.668;2023-04-08T10:45:36;13.07;;;5.63;;
15266;SDS011;7735;49.144;8.668;2023-04-08T10:48:13;8.60;;;5.20;;
15266;SDS011;7735;49.144;8.668;2023-04-08T10:50:41;5.00;;;2.97;;
15266;SDS011;7735;49.144;8.668;2023-04-08T10:53:08;10.30;;;6.10;;
15266;SDS011;7735;49.144;8.668;2023-04-08T10:55:37;10.23;;;6.20;;
15266;SDS011;7735;49.144;8.668;2023-04-08T10:58:05;9.43;;;5.87;;
15266;SDS011;7735;49.144;8.668;2023-04-08T11:00:33;7.87;;;4.70;;
15266;SDS011;7735;49.144;8.668;2023-04-08T11:03:00;8.23;;;5.43;;
15266;SDS011;7735;49.144;8.668;2023-04-08T11:05:27;9.23;;;6.27;;
15266;SDS011;7735;49.144;8.668;2023-04-08T11:07:55;7.87;;;3.97;;
15266;SDS011;7735;49.144;8.668;2023-04-08T11:10:22;10.47;;;7.33;;
15266;SDS011;7735;49.144;8.668;2023-04-08T11:12:50;18.60;;;9.80;;
15266;SDS011;7735;49.144;8.668;2023-04-08T11:15:18;18.50;;;7.87;;
15266;SDS011;7735;49.144;8.668;2023-04-08T11:17:45;15.57;;;8.10;;
15266;SDS011;7735;49.144;8.668;2023-04-08T11:20:12;14.87;;;8.87;;
15266;SDS011;7735;49.144;8.668;2023-04-08T11:22:39;13.20;;;7.87;;
15266;SDS011;7735;49.144;8.668;2023-04-08T11:25:07;10.23;;;6.47;;
15266;SDS011;7735;49.144;8.668;2023-04-08T11:27:34;8.70;;;5.50;;
15266;SDS011;7735;49.144;8.668;2023-04-08T11:30:03;10.67;;;6.33;;
15266;SDS011;7735;49.144;8.668;2023-04-08T11:32:30;8.07;;;5.20;;
15266;SDS011;7735;49.144;8.668;2023-04-08T11:34:58;8.57;;;5.00;;
15266;SDS011;7735;49.144;8.668;2023-04-08T11:37:35;9.47;;;5.60;;
15266;SDS011;7735;49.144;8.668;2023-04-08T11:40:05;10.70;;;5.60;;
15266;SDS011;7735;49.144;8.668;2023-04-08T11:42:33;4.77;;;3.40;;
15266;SDS011;7735;49.144;8.668;2023-04-08T11:44:59;3.40;;;2.23;;
15266;SDS011;7735;49.144;8.668;2023-04-08T11:47:30;5.10;;;2.13;;
15266;SDS011;7735;49.144;8.668;2023-04-08T11:49:58;8.93;;;5.80;;
15266;SDS011;7735;49.144;8.668;2023-04-08T11:52:39;9.30;;;5.90;;
15266;SDS011;7735;49.144;8.668;2023-04-08T11:55:07;9.60;;;4.97;;
15266;SDS011;7735;49.144;8.668;2023-04-08T11:57:35;10.43;;;6.30;;
15266;SDS011;7735;49.144;8.668;2023-04-08T12:00:02;9.03;;;4.60;;
15266;SDS011;7735;49.144;8.668;2023-04-08T12:02:32;16.07;;;5.10;;
15266;SDS011;7735;49.144;8.668;2023-04-08T12:04:58;10.43;;;6.03;;
15266;SDS011;7735;49.144;8.668;2023-04-08T12:07:27;9.73;;;5.37;;
15266;SDS011;7735;49.144;8.668;2023-04-08T12:09:53;9.27;;;5.40;;
15266;SDS011;7735;49.144;8.668;2023-04-08T12:12:20;2.93;;;2.10;;
15266;SDS011;7735;49.144;8.668;2023-04-08T12:14:47;8.50;;;4.97;;
15266;SDS011;7735;49.144;8.668;2023-04-08T12:17:13;6.27;;;4.43;;
15266;SDS011;7735;49.144;8.668;2023-04-08T12:19:41;11.40;;;6.03;;
15266;SDS011;7735;49.144;8.668;2023-04-08T12:22:08;11.43;;;6.00;;
15266;SDS011;7735;49.144;8.668;2023-04-08T12:27:38;11.00;;;6.23;;
15266;SDS011;7735;49.144;8.668;2023-04-08T12:30:05;9.40;;;5.80;;
15266;SDS011;7735;49.144;8.668;2023-04-08T12:32:33;10.33;;;6.07;;
15266;SDS011;7735;49.144;8.668;2023-04-08T12:35:01;10.13;;;5.50;;
15266;SDS011;7735;49.144;8.668;2023-04-08T12:37:27;10.90;;;7.00;;
15266;SDS011;7735;49.144;8.668;2023-04-08T12:40:00;11.70;;;7.00;;
15266;SDS011;7735;49.144;8.668;2023-04-08T12:42:27;8.83;;;4.07;;
15266;SDS011;7735;49.144;8.668;2023-04-08T12:44:53;9.77;;;6.03;;
15266;SDS011;7735;49.144;8.668;2023-04-08T12:47:26;8.90;;;5.90;;
15266;SDS011;7735;49.144;8.668;2023-04-08T12:49:53;11.85;;;7.70;;
15266;SDS011;7735;49.144;8.668;2023-04-08T12:52:21;6.47;;;3.10;;
15266;SDS011;7735;49.144;8.668;2023-04-08T12:54:48;6.03;;;4.00;;
15266;SDS011;7735;49.144;8.668;2023-04-08T12:57:14;7.97;;;4.23;;
15266;SDS011;7735;49.144;8.668;2023-04-08T12:59:41;10.60;;;6.47;;
15266;SDS011;7735;49.144;8.668;2023-04-08T13:02:08;5.63;;;2.73;;
15266;SDS011;7735;49.144;8.668;2023-04-08T13:04:35;6.40;;;2.47;;
15266;SDS011;7735;49.144;8.668;2023-04-08T13:07:01;10.40;;;5.93;;
15266;SDS011;7735;49.144;8.668;2023-04-08T13:09:36;8.60;;;5.30;;
15266;SDS011;7735;49.144;8.668;2023-04-08T13:12:02;7.97;;;4.97;;
15266;SDS011;7735;49.144;8.668;2023-04-08T13:14:29;9.13;;;4.50;;
15266;SDS011;7735;49.144;8.668;2023-04-08T13:16:58;10.60;;;5.83;;
15266;SDS011;7735;49.144;8.668;2023-04-08T13:19:30;5.80;;;3.83;;
15266;SDS011;7735;49.144;8.668;2023-04-08T13:24:48;6.57;;;2.03;;
15266;SDS011;7735;49.144;8.668;2023-04-08T13:27:15;12.57;;;6.10;;
15266;SDS011;7735;49.144;8.668;2023-04-08T13:29:47;4.20;;;1.97;;
15266;SDS011;7735;49.144;8.668;2023-04-08T13:32:14;10.90;;;6.20;;
15266;SDS011;7735;49.144;8.668;2023-04-08T13:34:41;5.67;;;3.53;;
15266;SDS011;7735;49.144;8.668;2023-04-08T13:37:27;6.93;;;4.37;;
15266;SDS011;7735;49.144;8.668;2023-04-08T13:39:55;5.73;;;2.80;;
15266;SDS011;7735;49.144;8.668;2023-04-08T13:42:22;4.43;;;2.77;;
15266;SDS011;7735;49.144;8.668;2023-04-08T13:44:51;4.80;;;2.87;;
15266;SDS011;7735;49.144;8.668;2023-04-08T13:47:17;6.47;;;3.30;;
15266;SDS011;7735;49.144;8.668;2023-04-08T13:49:50;2.70;;;1.30;;
15266;SDS011;7735;49.144;8.668;2023-04-08T13:52:17;4.77;;;3.40;;
15266;SDS011;7735;49.144;8.668;2023-04-08T13:54:44;6.28;;;4.28;;
15266;SDS011;7735;49.144;8.668;2023-04-08T13:57:12;7.63;;;4.23;;
15266;SDS011;7735;49.144;8.668;2023-04-08T13:59:39;5.83;;;3.67;;
15266;SDS011;7735;49.144;8.668;2023-04-08T14:02:05;4.20;;;3.17;;
15266;SDS011;7735;49.144;8.668;2023-04-08T14:04:32;5.13;;;3.37;;
15266;SDS011;7735;49.144;8.668;2023-04-08T14:06:59;8.93;;;5.10;;
15266;SDS011;7735;49.144;8.668;2023-04-08T14:09:34;6.43;;;4.40;;
15266;SDS011;7735;49.144;8.668;2023-04-08T14:12:10;15.77;;;7.17;;
15266;SDS011;7735;49.144;8.668;2023-04-08T14:14:38;25.07;;;11.10;;
15266;SDS011;7735;49.144;8.668;2023-04-08T14:17:05;7.00;;;4.80;;
15266;SDS011;7735;49.144;8.668;2023-04-08T14:19:32;6.47;;;3.30;;
15266;SDS011;7735;49.144;8.668;2023-04-08T14:21:59;6.93;;;4.50;;
15266;SDS011;7735;49.144;8.668;2023-04-08T14:24:28;9.33;;;4.37;;
15266;SDS011;7735;49.144;8.668;2023-04-08T14:26:55;10.37;;;5.60;;
15266;SDS011;7735;49.144;8.668;2023-04-08T14:29:22;10.10;;;4.90;;
15266;SDS011;7735;49.144;8.668;2023-04-08T14:31:53;12.30;;;5.30;;
15266;SDS011;7735;49.144;8.668;2023-04-08T14:34:19;10.83;;;4.90;;
15266;SDS011;7735;49.144;8.668;2023-04-08T14:36:46;11.20;;;4.97;;
15266;SDS011;7735;49.144;8.668;2023-04-08T14:39:13;6.00;;;3.80;;
15266;SDS011;7735;49.144;8.668;2023-04-08T14:41:39;6.07;;;4.20;;
15266;SDS011;7735;49.144;8.668;2023-04-08T14:44:06;10.13;;;6.97;;
15266;SDS011;7735;49.144;8.668;2023-04-08T14:46:33;5.47;;;4.13;;
15266;SDS011;7735;49.144;8.668;2023-04-08T14:49:01;8.00;;;4.20;;
15266;SDS011;7735;49.144;8.668;2023-04-08T14:51:29;6.60;;;4.17;;
15266;SDS011;7735;49.144;8.668;2023-04-08T14:53:57;9.90;;;5.53;;
15266;SDS011;7735;49.144;8.668;2023-04-08T14:56:23;8.87;;;5.90;;
15266;SDS011;7735;49.144;8.668;2023-04-08T14:58:50;7.47;;;4.50;;
15266;SDS011;7735;49.144;8.668;2023-04-08T15:01:17;5.70;;;3.80;;
15266;SDS011;7735;49.144;8.668;2023-04-08T15:03:43;5.77;;;4.20;;
15266;SDS011;7735;49.144;8.668;2023-04-08T15:06:12;7.70;;;4.77;;
15266;SDS011;7735;49.144;8.668;2023-04-08T15:08:41;6.63;;;4.20;;
15266;SDS011;7735;49.144;8.668;2023-04-08T15:11:08;9.80;;;5.97;;